sensor_id;sensor_type;location;lat;lon;timestamp;temperature;humidity
2441;DHT22;1231;53.988;9.470;2023-03-16T00:02:26;1.10;84.70
2441;DHT22;1231;53.988;9.470;2023-03-16T00:05:17;1.20;84.80
2441;DHT22;1231;53.988;9.470;2023-03-16T00:08:08;1.10;84.90
2441;DHT22;1231;53.988;9.470;2023-03-16T00:10:59;1.10;84.90
2441;DHT22;1231;53.988;9.470;2023-03-16T00:13:52;1.10;84.90
2441;DHT22;1231;53.988;9.470;2023-03-16T00:16:43;1.20;85.00
2441;DHT22;1231;53.988;9.470;2023-03-16T00:19:34;1.10;84.90
2441;DHT22;1231;53.988;9.470;2023-03-16T00:22:29;1.10;84.90
2441;DHT22;1231;53.988;9.470;2023-03-16T00:25:20;1.10;84.80
2441;DHT22;1231;53.988;9.470;2023-03-16T00:28:11;1.10;84.70
2441;DHT22;1231;53.988;9.470;2023-03-16T00:31:05;1.10;84.60
2441;DHT22;1231;53.988;9.470;2023-03-16T00:33:57;1.00;84.40
2441;DHT22;1231;53.988;9.470;2023-03-16T00:36:48;1.00;84.30
2441;DHT22;1231;53.988;9.470;2023-03-16T00:39:43;0.90;84.30
2441;DHT22;1231;53.988;9.470;2023-03-16T00:42:34;0.90;84.30
2441;DHT22;1231;53.988;9.470;2023-03-16T00:45:25;0.80;84.40
2441;DHT22;1231;53.988;9.470;2023-03-16T00:48:15;0.80;84.40
2441;DHT22;1231;53.988;9.470;2023-03-16T00:51:10;0.80;84.40
2441;DHT22;1231;53.988;9.470;2023-03-16T00:54:05;0.70;84.50
2441;DHT22;1231;53.988;9.470;2023-03-16T00:56:55;0.70;84.50
2441;DHT22;1231;53.988;9.470;2023-03-16T00:59:47;0.70;84.60
2441;DHT22;1231;53.988;9.470;2023-03-16T01:02:38;0.70;84.70
2441;DHT22;1231;53.988;9.470;2023-03-16T01:05:29;0.70;84.90
2441;DHT22;1231;53.988;9.470;2023-03-16T01:08:23;0.60;84.90
2441;DHT22;1231;53.988;9.470;2023-03-16T01:11:16;0.70;85.00
2441;DHT22;1231;53.988;9.470;2023-03-16T01:14:08;0.70;85.10
2441;DHT22;1231;53.988;9.470;2023-03-16T01:17:00;0.60;85.20
2441;DHT22;1231;53.988;9.470;2023-03-16T01:19:52;0.60;85.20
2441;DHT22;1231;53.988;9.470;2023-03-16T01:22:43;0.60;85.30
2441;DHT22;1231;53.988;9.470;2023-03-16T01:25:34;0.60;85.30
2441;DHT22;1231;53.988;9.470;2023-03-16T01:28:28;0.60;85.40
2441;DHT22;1231;53.988;9.470;2023-03-16T01:31:19;0.60;85.40
2441;DHT22;1231;53.988;9.470;2023-03-16T01:34:10;0.60;85.50
2441;DHT22;1231;53.988;9.470;2023-03-16T01:37:06;0.60;85.70
2441;DHT22;1231;53.988;9.470;2023-03-16T01:39:57;0.60;85.90
2441;DHT22;1231;53.988;9.470;2023-03-16T01:42:58;0.70;85.80
2441;DHT22;1231;53.988;9.470;2023-03-16T01:49:14;0.70;85.70
2441;DHT22;1231;53.988;9.470;2023-03-16T01:52:10;0.70;85.70
2441;DHT22;1231;53.988;9.470;2023-03-16T01:55:08;0.60;85.60
2441;DHT22;1231;53.988;9.470;2023-03-16T01:58:03;0.70;85.60
2441;DHT22;1231;53.988;9.470;2023-03-16T02:00:54;0.60;85.60
2441;DHT22;1231;53.988;9.470;2023-03-16T02:03:47;0.60;85.60
2441;DHT22;1231;53.988;9.470;2023-03-16T02:06:38;0.60;85.70
2441;DHT22;1231;53.988;9.470;2023-03-16T02:09:30;0.50;85.70
2441;DHT22;1231;53.988;9.470;2023-03-16T02:12:21;0.50;85.70
2441;DHT22;1231;53.988;9.470;2023-03-16T02:15:13;0.50;85.80
2441;DHT22;1231;53.988;9.470;2023-03-16T02:18:04;0.40;85.80
2441;DHT22;1231;53.988;9.470;2023-03-16T02:24:07;0.50;86.30
2441;DHT22;1231;53.988;9.470;2023-03-16T02:27:04;0.50;86.40
2441;DHT22;1231;53.988;9.470;2023-03-16T02:30:07;0.60;86.60
2441;DHT22;1231;53.988;9.470;2023-03-16T02:33:01;0.60;86.70
2441;DHT22;1231;53.988;9.470;2023-03-16T02:35:54;0.70;86.80
2441;DHT22;1231;53.988;9.470;2023-03-16T02:38:45;0.70;87.10
2441;DHT22;1231;53.988;9.470;2023-03-16T02:41:36;0.70;87.10
2441;DHT22;1231;53.988;9.470;2023-03-16T02:44:31;0.80;87.20
2441;DHT22;1231;53.988;9.470;2023-03-16T02:47:35;0.80;87.20
2441;DHT22;1231;53.988;9.470;2023-03-16T02:50:27;0.80;87.10
2441;DHT22;1231;53.988;9.470;2023-03-16T02:53:18;0.80;87.10
2441;DHT22;1231;53.988;9.470;2023-03-16T02:56:09;0.80;87.10
2441;DHT22;1231;53.988;9.470;2023-03-16T02:59:00;0.80;87.10
2441;DHT22;1231;53.988;9.470;2023-03-16T03:01:52;0.80;87.10
2441;DHT22;1231;53.988;9.470;2023-03-16T03:04:43;0.80;87.20
2441;DHT22;1231;53.988;9.470;2023-03-16T03:07:36;0.80;87.20
2441;DHT22;1231;53.988;9.470;2023-03-16T03:10:27;0.80;87.20
2441;DHT22;1231;53.988;9.470;2023-03-16T03:13:18;0.80;87.20
2441;DHT22;1231;53.988;9.470;2023-03-16T03:16:09;0.80;87.20
2441;DHT22;1231;53.988;9.470;2023-03-16T03:19:00;0.90;87.10
2441;DHT22;1231;53.988;9.470;2023-03-16T03:21:51;0.90;87.10
2441;DHT22;1231;53.988;9.470;2023-03-16T03:24:46;0.90;86.90
2441;DHT22;1231;53.988;9.470;2023-03-16T03:27:37;0.90;86.90
2441;DHT22;1231;53.988;9.470;2023-03-16T03:30:28;0.90;86.80
2441;DHT22;1231;53.988;9.470;2023-03-16T03:33:19;0.90;86.80
2441;DHT22;1231;53.988;9.470;2023-03-16T03:36:12;0.90;86.80
2441;DHT22;1231;53.988;9.470;2023-03-16T03:39:04;0.90;86.80
2441;DHT22;1231;53.988;9.470;2023-03-16T03:41:55;0.90;86.70
2441;DHT22;1231;53.988;9.470;2023-03-16T03:44:45;0.90;86.70
2441;DHT22;1231;53.988;9.470;2023-03-16T03:47:43;0.90;86.80
2441;DHT22;1231;53.988;9.470;2023-03-16T03:50:41;1.00;86.90
2441;DHT22;1231;53.988;9.470;2023-03-16T03:53:32;1.00;86.90
2441;DHT22;1231;53.988;9.470;2023-03-16T03:56:23;1.00;86.80
2441;DHT22;1231;53.988;9.470;2023-03-16T03:59:14;1.10;86.70
2441;DHT22;1231;53.988;9.470;2023-03-16T04:02:05;1.10;86.60
2441;DHT22;1231;53.988;9.470;2023-03-16T04:04:56;1.10;86.60
2441;DHT22;1231;53.988;9.470;2023-03-16T04:07:46;1.10;86.50
2441;DHT22;1231;53.988;9.470;2023-03-16T04:10:38;1.00;86.50
2441;DHT22;1231;53.988;9.470;2023-03-16T04:13:28;1.00;86.40
2441;DHT22;1231;53.988;9.470;2023-03-16T04:16:20;1.00;86.30
2441;DHT22;1231;53.988;9.470;2023-03-16T04:19:11;1.00;86.30
2441;DHT22;1231;53.988;9.470;2023-03-16T04:22:02;1.00;86.30
2441;DHT22;1231;53.988;9.470;2023-03-16T04:24:53;1.00;86.40
2441;DHT22;1231;53.988;9.470;2023-03-16T04:27:44;1.00;86.40
2441;DHT22;1231;53.988;9.470;2023-03-16T04:30:36;1.00;86.40
2441;DHT22;1231;53.988;9.470;2023-03-16T04:33:27;1.00;86.40
2441;DHT22;1231;53.988;9.470;2023-03-16T04:36:18;1.00;86.30
2441;DHT22;1231;53.988;9.470;2023-03-16T04:39:09;1.00;86.20
2441;DHT22;1231;53.988;9.470;2023-03-16T04:42:00;1.00;86.30
2441;DHT22;1231;53.988;9.470;2023-03-16T04:44:51;1.00;86.30
2441;DHT22;1231;53.988;9.470;2023-03-16T04:47:42;1.00;86.30
2441;DHT22;1231;53.988;9.470;2023-03-16T04:50:33;1.00;86.20
2441;DHT22;1231;53.988;9.470;2023-03-16T04:53:24;1.00;86.20
2441;DHT22;1231;53.988;9.470;2023-03-16T04:56:15;1.00;86.20
2441;DHT22;1231;53.988;9.470;2023-03-16T04:59:08;1.00;86.10
2441;DHT22;1231;53.988;9.470;2023-03-16T05:01:59;1.00;86.00
2441;DHT22;1231;53.988;9.470;2023-03-16T05:04:49;1.00;85.90
2441;DHT22;1231;53.988;9.470;2023-03-16T05:07:41;1.00;85.90
2441;DHT22;1231;53.988;9.470;2023-03-16T05:10:33;1.00;85.90
2441;DHT22;1231;53.988;9.470;2023-03-16T05:13:24;1.00;85.90
2441;DHT22;1231;53.988;9.470;2023-03-16T05:16:15;1.00;85.90
2441;DHT22;1231;53.988;9.470;2023-03-16T05:19:06;1.00;85.80
2441;DHT22;1231;53.988;9.470;2023-03-16T05:21:57;1.10;85.70
2441;DHT22;1231;53.988;9.470;2023-03-16T05:24:48;1.10;85.90
2441;DHT22;1231;53.988;9.470;2023-03-16T05:27:43;1.20;85.90
2441;DHT22;1231;53.988;9.470;2023-03-16T05:30:35;1.20;85.90
2441;DHT22;1231;53.988;9.470;2023-03-16T05:33:26;1.30;85.90
2441;DHT22;1231;53.988;9.470;2023-03-16T05:36:17;1.30;85.80
2441;DHT22;1231;53.988;9.470;2023-03-16T05:39:08;1.40;85.70
2441;DHT22;1231;53.988;9.470;2023-03-16T05:41:59;1.40;85.70
2441;DHT22;1231;53.988;9.470;2023-03-16T05:44:50;1.40;85.70
2441;DHT22;1231;53.988;9.470;2023-03-16T05:47:42;1.50;85.80
2441;DHT22;1231;53.988;9.470;2023-03-16T05:50:33;1.50;85.70
2441;DHT22;1231;53.988;9.470;2023-03-16T05:53:24;1.50;85.80
2441;DHT22;1231;53.988;9.470;2023-03-16T05:56:18;1.50;85.70
2441;DHT22;1231;53.988;9.470;2023-03-16T05:59:09;1.60;85.70
2441;DHT22;1231;53.988;9.470;2023-03-16T06:02:00;1.70;85.80
2441;DHT22;1231;53.988;9.470;2023-03-16T06:04:51;1.80;85.70
2441;DHT22;1231;53.988;9.470;2023-03-16T06:07:42;2.00;85.60
2441;DHT22;1231;53.988;9.470;2023-03-16T06:10:34;2.10;85.00
2441;DHT22;1231;53.988;9.470;2023-03-16T06:13:24;2.20;84.60
2441;DHT22;1231;53.988;9.470;2023-03-16T06:16:15;2.20;84.50
2441;DHT22;1231;53.988;9.470;2023-03-16T06:19:06;2.30;84.40
2441;DHT22;1231;53.988;9.470;2023-03-16T06:21:57;2.30;84.20
2441;DHT22;1231;53.988;9.470;2023-03-16T06:24:48;2.40;83.90
2441;DHT22;1231;53.988;9.470;2023-03-16T06:27:39;2.50;83.80
2441;DHT22;1231;53.988;9.470;2023-03-16T06:30:31;2.50;83.60
2441;DHT22;1231;53.988;9.470;2023-03-16T06:33:26;2.70;83.50
2441;DHT22;1231;53.988;9.470;2023-03-16T06:36:17;2.70;83.30
2441;DHT22;1231;53.988;9.470;2023-03-16T06:39:08;2.90;83.10
2441;DHT22;1231;53.988;9.470;2023-03-16T06:41:59;2.90;82.90
2441;DHT22;1231;53.988;9.470;2023-03-16T06:44:50;3.00;82.80
2441;DHT22;1231;53.988;9.470;2023-03-16T06:47:43;3.00;82.70
2441;DHT22;1231;53.988;9.470;2023-03-16T06:50:34;3.10;82.60
2441;DHT22;1231;53.988;9.470;2023-03-16T06:53:25;3.20;82.50
2441;DHT22;1231;53.988;9.470;2023-03-16T06:56:16;3.30;82.30
2441;DHT22;1231;53.988;9.470;2023-03-16T06:59:07;3.40;82.00
2441;DHT22;1231;53.988;9.470;2023-03-16T07:01:58;3.50;81.60
2441;DHT22;1231;53.988;9.470;2023-03-16T07:04:49;3.60;81.30
2441;DHT22;1231;53.988;9.470;2023-03-16T07:07:41;3.70;80.70
2441;DHT22;1231;53.988;9.470;2023-03-16T07:10:32;3.70;80.30
2441;DHT22;1231;53.988;9.470;2023-03-16T07:13:24;3.80;80.10
2441;DHT22;1231;53.988;9.470;2023-03-16T07:16:18;3.90;79.90
2441;DHT22;1231;53.988;9.470;2023-03-16T07:19:09;3.90;79.60
2441;DHT22;1231;53.988;9.470;2023-03-16T07:22:00;4.00;79.60
2441;DHT22;1231;53.988;9.470;2023-03-16T07:24:52;4.10;79.40
2441;DHT22;1231;53.988;9.470;2023-03-16T07:27:47;4.10;79.20
2441;DHT22;1231;53.988;9.470;2023-03-16T07:30:38;4.30;79.10
2441;DHT22;1231;53.988;9.470;2023-03-16T07:33:30;4.40;78.70
2441;DHT22;1231;53.988;9.470;2023-03-16T07:36:21;4.50;78.20
2441;DHT22;1231;53.988;9.470;2023-03-16T07:39:13;4.60;77.40
2441;DHT22;1231;53.988;9.470;2023-03-16T07:42:04;4.70;76.60
2441;DHT22;1231;53.988;9.470;2023-03-16T07:44:55;4.80;75.90
2441;DHT22;1231;53.988;9.470;2023-03-16T07:47:46;4.90;75.70
2441;DHT22;1231;53.988;9.470;2023-03-16T07:50:37;5.00;75.00
2441;DHT22;1231;53.988;9.470;2023-03-16T07:53:28;5.10;74.30
2441;DHT22;1231;53.988;9.470;2023-03-16T07:56:19;5.10;73.90
2441;DHT22;1231;53.988;9.470;2023-03-16T07:59:11;5.20;73.30
2441;DHT22;1231;53.988;9.470;2023-03-16T08:02:02;5.40;73.50
2441;DHT22;1231;53.988;9.470;2023-03-16T08:04:53;5.50;72.50
2441;DHT22;1231;53.988;9.470;2023-03-16T08:07:44;5.70;72.20
2441;DHT22;1231;53.988;9.470;2023-03-16T08:10:35;6.00;72.20
2441;DHT22;1231;53.988;9.470;2023-03-16T08:13:26;6.10;70.80
2441;DHT22;1231;53.988;9.470;2023-03-16T08:16:17;6.20;70.70
2441;DHT22;1231;53.988;9.470;2023-03-16T08:19:07;6.30;69.60
2441;DHT22;1231;53.988;9.470;2023-03-16T08:21:59;6.30;69.80
2441;DHT22;1231;53.988;9.470;2023-03-16T08:24:50;6.50;70.00
2441;DHT22;1231;53.988;9.470;2023-03-16T08:27:41;6.60;69.60
2441;DHT22;1231;53.988;9.470;2023-03-16T08:30:32;6.80;69.40
2441;DHT22;1231;53.988;9.470;2023-03-16T08:33:23;7.00;68.80
2441;DHT22;1231;53.988;9.470;2023-03-16T08:36:16;7.20;69.00
2441;DHT22;1231;53.988;9.470;2023-03-16T08:39:08;7.50;69.30
2441;DHT22;1231;53.988;9.470;2023-03-16T08:41:59;7.70;68.90
2441;DHT22;1231;53.988;9.470;2023-03-16T08:44:50;7.90;67.50
2441;DHT22;1231;53.988;9.470;2023-03-16T08:47:44;8.10;66.90
2441;DHT22;1231;53.988;9.470;2023-03-16T08:50:35;8.30;66.20
2441;DHT22;1231;53.988;9.470;2023-03-16T08:53:27;8.50;66.00
2441;DHT22;1231;53.988;9.470;2023-03-16T08:56:18;8.70;65.00
2441;DHT22;1231;53.988;9.470;2023-03-16T08:59:09;8.80;63.60
2441;DHT22;1231;53.988;9.470;2023-03-16T09:02:00;9.00;63.70
2441;DHT22;1231;53.988;9.470;2023-03-16T09:04:51;9.10;62.70
2441;DHT22;1231;53.988;9.470;2023-03-16T09:07:42;9.20;62.80
2441;DHT22;1231;53.988;9.470;2023-03-16T09:10:33;9.30;62.50
2441;DHT22;1231;53.988;9.470;2023-03-16T09:13:26;9.40;62.30
2441;DHT22;1231;53.988;9.470;2023-03-16T09:16:17;9.50;61.70
2441;DHT22;1231;53.988;9.470;2023-03-16T09:19:08;9.60;62.10
2441;DHT22;1231;53.988;9.470;2023-03-16T09:22:01;9.80;61.90
2441;DHT22;1231;53.988;9.470;2023-03-16T09:24:52;9.90;61.40
2441;DHT22;1231;53.988;9.470;2023-03-16T09:27:50;10.00;61.20
2441;DHT22;1231;53.988;9.470;2023-03-16T09:30:41;10.10;60.50
2441;DHT22;1231;53.988;9.470;2023-03-16T09:33:32;10.20;60.40
2441;DHT22;1231;53.988;9.470;2023-03-16T09:36:24;10.30;60.30
2441;DHT22;1231;53.988;9.470;2023-03-16T09:39:15;10.40;59.40
2441;DHT22;1231;53.988;9.470;2023-03-16T09:42:34;10.60;59.80
2441;DHT22;1231;53.988;9.470;2023-03-16T09:45:58;10.70;60.00
2441;DHT22;1231;53.988;9.470;2023-03-16T09:48:54;10.90;59.60
2441;DHT22;1231;53.988;9.470;2023-03-16T09:58:12;11.00;58.50
2441;DHT22;1231;53.988;9.470;2023-03-16T10:05:07;11.10;58.30
2441;DHT22;1231;53.988;9.470;2023-03-16T10:17:38;11.30;58.20
2441;DHT22;1231;53.988;9.470;2023-03-16T10:20:33;11.30;57.70
2441;DHT22;1231;53.988;9.470;2023-03-16T10:23:24;11.40;57.80
2441;DHT22;1231;53.988;9.470;2023-03-16T10:26:30;11.50;58.00
2441;DHT22;1231;53.988;9.470;2023-03-16T10:29:29;11.60;58.20
2441;DHT22;1231;53.988;9.470;2023-03-16T10:32:21;11.80;57.60
2441;DHT22;1231;53.988;9.470;2023-03-16T10:35:40;11.80;56.60
2441;DHT22;1231;53.988;9.470;2023-03-16T10:41:36;11.90;56.30
2441;DHT22;1231;53.988;9.470;2023-03-16T10:44:28;11.90;56.30
2441;DHT22;1231;53.988;9.470;2023-03-16T10:47:26;11.90;54.80
2441;DHT22;1231;53.988;9.470;2023-03-16T10:50:23;11.90;55.60
2441;DHT22;1231;53.988;9.470;2023-03-16T10:53:35;11.80;55.70
2441;DHT22;1231;53.988;9.470;2023-03-16T10:56:32;11.80;55.60
2441;DHT22;1231;53.988;9.470;2023-03-16T10:59:31;11.80;55.60
2441;DHT22;1231;53.988;9.470;2023-03-16T11:02:30;11.90;55.10
2441;DHT22;1231;53.988;9.470;2023-03-16T11:05:28;12.00;55.10
2441;DHT22;1231;53.988;9.470;2023-03-16T11:08:24;12.20;54.60
2441;DHT22;1231;53.988;9.470;2023-03-16T11:11:30;12.50;55.00
2441;DHT22;1231;53.988;9.470;2023-03-16T11:14:26;12.70;53.70
2441;DHT22;1231;53.988;9.470;2023-03-16T11:17:29;12.90;53.40
2441;DHT22;1231;53.988;9.470;2023-03-16T11:20:26;13.00;52.90
2441;DHT22;1231;53.988;9.470;2023-03-16T11:23:21;13.10;52.50
2441;DHT22;1231;53.988;9.470;2023-03-16T11:26:22;13.10;52.60
2441;DHT22;1231;53.988;9.470;2023-03-16T11:29:26;13.10;51.20
2441;DHT22;1231;53.988;9.470;2023-03-16T11:32:22;13.10;49.90
2441;DHT22;1231;53.988;9.470;2023-03-16T11:35:17;13.10;51.10
2441;DHT22;1231;53.988;9.470;2023-03-16T11:41:21;13.10;51.60
2441;DHT22;1231;53.988;9.470;2023-03-16T11:50:55;13.00;50.70
2441;DHT22;1231;53.988;9.470;2023-03-16T11:57:27;12.90;50.90
2441;DHT22;1231;53.988;9.470;2023-03-16T12:03:47;12.80;50.90
2441;DHT22;1231;53.988;9.470;2023-03-16T12:19:12;13.30;49.30
2441;DHT22;1231;53.988;9.470;2023-03-16T12:22:22;13.50;49.10
2441;DHT22;1231;53.988;9.470;2023-03-16T12:25:21;13.60;49.10
2441;DHT22;1231;53.988;9.470;2023-03-16T12:28:23;13.70;49.30
2441;DHT22;1231;53.988;9.470;2023-03-16T12:31:40;13.60;49.00
2441;DHT22;1231;53.988;9.470;2023-03-16T12:35:26;13.80;49.80
2441;DHT22;1231;53.988;9.470;2023-03-16T12:44:55;13.90;46.50
2441;DHT22;1231;53.988;9.470;2023-03-16T12:51:00;13.90;47.60
2441;DHT22;1231;53.988;9.470;2023-03-16T12:53:53;13.90;48.50
2441;DHT22;1231;53.988;9.470;2023-03-16T12:56:46;13.90;46.00
2441;DHT22;1231;53.988;9.470;2023-03-16T12:59:40;13.80;46.60
2441;DHT22;1231;53.988;9.470;2023-03-16T13:02:37;13.80;46.80
2441;DHT22;1231;53.988;9.470;2023-03-16T13:05:33;13.80;46.60
2441;DHT22;1231;53.988;9.470;2023-03-16T13:08:25;13.70;46.80
2441;DHT22;1231;53.988;9.470;2023-03-16T13:11:17;13.70;47.70
2441;DHT22;1231;53.988;9.470;2023-03-16T13:14:12;13.60;47.70
2441;DHT22;1231;53.988;9.470;2023-03-16T13:17:21;13.50;46.20
2441;DHT22;1231;53.988;9.470;2023-03-16T13:26:20;13.10;46.40
2441;DHT22;1231;53.988;9.470;2023-03-16T13:29:30;13.10;47.50
2441;DHT22;1231;53.988;9.470;2023-03-16T13:32:22;13.10;47.60
2441;DHT22;1231;53.988;9.470;2023-03-16T13:35:16;13.10;47.40
2441;DHT22;1231;53.988;9.470;2023-03-16T13:38:14;13.00;47.40
2441;DHT22;1231;53.988;9.470;2023-03-16T13:41:10;12.90;46.80
2441;DHT22;1231;53.988;9.470;2023-03-16T13:44:04;12.80;46.90
2441;DHT22;1231;53.988;9.470;2023-03-16T13:46:55;12.70;47.20
2441;DHT22;1231;53.988;9.470;2023-03-16T13:49:53;12.60;47.20
2441;DHT22;1231;53.988;9.470;2023-03-16T13:52:57;12.60;47.40
2441;DHT22;1231;53.988;9.470;2023-03-16T13:55:48;12.50;48.40
2441;DHT22;1231;53.988;9.470;2023-03-16T13:58:44;12.50;48.40
2441;DHT22;1231;53.988;9.470;2023-03-16T14:01:35;12.40;48.10
2441;DHT22;1231;53.988;9.470;2023-03-16T14:04:29;12.30;48.20
2441;DHT22;1231;53.988;9.470;2023-03-16T14:07:21;12.20;48.60
2441;DHT22;1231;53.988;9.470;2023-03-16T14:10:14;12.10;48.50
2441;DHT22;1231;53.988;9.470;2023-03-16T14:13:09;12.00;48.70
2441;DHT22;1231;53.988;9.470;2023-03-16T14:16:12;11.80;48.40
2441;DHT22;1231;53.988;9.470;2023-03-16T14:19:15;11.70;48.40
2441;DHT22;1231;53.988;9.470;2023-03-16T14:22:11;11.50;48.60
2441;DHT22;1231;53.988;9.470;2023-03-16T14:25:04;11.40;48.60
2441;DHT22;1231;53.988;9.470;2023-03-16T14:27:58;11.30;49.00
2441;DHT22;1231;53.988;9.470;2023-03-16T14:30:51;11.20;48.90
2441;DHT22;1231;53.988;9.470;2023-03-16T14:33:42;11.20;48.20
2441;DHT22;1231;53.988;9.470;2023-03-16T14:36:37;11.10;48.00
2441;DHT22;1231;53.988;9.470;2023-03-16T14:39:28;11.10;48.90
2441;DHT22;1231;53.988;9.470;2023-03-16T14:42:27;11.10;49.40
2441;DHT22;1231;53.988;9.470;2023-03-16T14:45:20;11.10;48.60
2441;DHT22;1231;53.988;9.470;2023-03-16T14:48:19;11.10;49.40
2441;DHT22;1231;53.988;9.470;2023-03-16T14:51:12;11.10;48.90
2441;DHT22;1231;53.988;9.470;2023-03-16T14:54:11;11.10;49.70
2441;DHT22;1231;53.988;9.470;2023-03-16T14:57:04;11.10;49.90
2441;DHT22;1231;53.988;9.470;2023-03-16T14:59:55;11.10;48.90
2441;DHT22;1231;53.988;9.470;2023-03-16T15:03:02;11.00;49.90
2441;DHT22;1231;53.988;9.470;2023-03-16T15:06:02;11.00;49.50
2441;DHT22;1231;53.988;9.470;2023-03-16T15:08:53;10.90;50.60
2441;DHT22;1231;53.988;9.470;2023-03-16T15:11:44;10.90;50.60
2441;DHT22;1231;53.988;9.470;2023-03-16T15:14:36;10.90;49.60
2441;DHT22;1231;53.988;9.470;2023-03-16T15:17:46;10.80;48.90
2441;DHT22;1231;53.988;9.470;2023-03-16T15:20:40;10.90;49.80
2441;DHT22;1231;53.988;9.470;2023-03-16T15:23:32;10.90;49.90
2441;DHT22;1231;53.988;9.470;2023-03-16T15:26:31;10.90;49.80
2441;DHT22;1231;53.988;9.470;2023-03-16T15:29:22;10.90;49.80
2441;DHT22;1231;53.988;9.470;2023-03-16T15:32:13;10.90;49.80
2441;DHT22;1231;53.988;9.470;2023-03-16T15:35:08;10.80;49.00
2441;DHT22;1231;53.988;9.470;2023-03-16T15:37:59;10.90;49.80
2441;DHT22;1231;53.988;9.470;2023-03-16T15:40:53;10.90;50.20
2441;DHT22;1231;53.988;9.470;2023-03-16T15:43:44;10.90;50.00
2441;DHT22;1231;53.988;9.470;2023-03-16T15:46:35;10.90;49.40
2441;DHT22;1231;53.988;9.470;2023-03-16T15:49:26;10.90;49.90
2441;DHT22;1231;53.988;9.470;2023-03-16T15:52:31;10.90;48.70
2441;DHT22;1231;53.988;9.470;2023-03-16T15:55:42;11.00;49.80
2441;DHT22;1231;53.988;9.470;2023-03-16T15:58:34;11.00;50.10
2441;DHT22;1231;53.988;9.470;2023-03-16T16:01:29;10.90;49.80
2441;DHT22;1231;53.988;9.470;2023-03-16T16:04:29;10.80;49.40
2441;DHT22;1231;53.988;9.470;2023-03-16T16:07:20;10.70;50.50
2441;DHT22;1231;53.988;9.470;2023-03-16T16:10:14;10.60;50.50
2441;DHT22;1231;53.988;9.470;2023-03-16T16:13:15;10.50;50.60
2441;DHT22;1231;53.988;9.470;2023-03-16T16:16:12;10.40;51.10
2441;DHT22;1231;53.988;9.470;2023-03-16T16:19:04;10.30;50.80
2441;DHT22;1231;53.988;9.470;2023-03-16T16:21:55;10.20;49.50
2441;DHT22;1231;53.988;9.470;2023-03-16T16:24:46;10.20;50.50
2441;DHT22;1231;53.988;9.470;2023-03-16T16:27:38;10.20;50.90
2441;DHT22;1231;53.988;9.470;2023-03-16T16:30:30;10.20;49.90
2441;DHT22;1231;53.988;9.470;2023-03-16T16:33:34;10.10;51.00
2441;DHT22;1231;53.988;9.470;2023-03-16T16:36:25;10.10;50.60
2441;DHT22;1231;53.988;9.470;2023-03-16T16:39:17;10.10;50.10
2441;DHT22;1231;53.988;9.470;2023-03-16T16:42:14;10.00;51.10
2441;DHT22;1231;53.988;9.470;2023-03-16T16:45:15;10.00;50.20
2441;DHT22;1231;53.988;9.470;2023-03-16T16:48:21;9.90;50.60
2441;DHT22;1231;53.988;9.470;2023-03-16T16:51:20;9.90;50.70
2441;DHT22;1231;53.988;9.470;2023-03-16T16:57:13;9.80;50.30
2441;DHT22;1231;53.988;9.470;2023-03-16T17:00:14;9.80;49.40
2441;DHT22;1231;53.988;9.470;2023-03-16T17:03:20;9.80;48.80
2441;DHT22;1231;53.988;9.470;2023-03-16T17:06:17;9.80;49.70
2441;DHT22;1231;53.988;9.470;2023-03-16T17:09:09;9.70;49.20
2441;DHT22;1231;53.988;9.470;2023-03-16T17:12:00;9.70;49.70
2441;DHT22;1231;53.988;9.470;2023-03-16T17:14:51;9.70;50.10
2441;DHT22;1231;53.988;9.470;2023-03-16T17:17:42;9.60;48.50
2441;DHT22;1231;53.988;9.470;2023-03-16T17:20:33;9.60;48.80
2441;DHT22;1231;53.988;9.470;2023-03-16T17:23:32;9.60;49.60
2441;DHT22;1231;53.988;9.470;2023-03-16T17:26:27;9.60;49.80
2441;DHT22;1231;53.988;9.470;2023-03-16T17:29:30;9.50;49.60
2441;DHT22;1231;53.988;9.470;2023-03-16T17:32:21;9.50;50.00
2441;DHT22;1231;53.988;9.470;2023-03-16T17:35:14;9.50;50.10
2441;DHT22;1231;53.988;9.470;2023-03-16T17:38:22;9.50;49.80
2441;DHT22;1231;53.988;9.470;2023-03-16T17:41:22;9.40;48.90
2441;DHT22;1231;53.988;9.470;2023-03-16T17:44:14;9.40;48.80
2441;DHT22;1231;53.988;9.470;2023-03-16T17:47:21;9.30;48.80
2441;DHT22;1231;53.988;9.470;2023-03-16T17:50:22;9.30;48.80
2441;DHT22;1231;53.988;9.470;2023-03-16T17:53:18;9.30;48.10
2441;DHT22;1231;53.988;9.470;2023-03-16T17:56:19;9.20;48.80
2441;DHT22;1231;53.988;9.470;2023-03-16T17:59:15;9.20;48.40
2441;DHT22;1231;53.988;9.470;2023-03-16T18:05:29;9.20;49.20
2441;DHT22;1231;53.988;9.470;2023-03-16T18:08:26;9.20;48.10
2441;DHT22;1231;53.988;9.470;2023-03-16T18:11:31;9.20;47.40
2441;DHT22;1231;53.988;9.470;2023-03-16T18:14:35;9.20;47.00
2441;DHT22;1231;53.988;9.470;2023-03-16T18:17:28;9.20;47.60
2441;DHT22;1231;53.988;9.470;2023-03-16T18:20:31;9.20;47.20
2441;DHT22;1231;53.988;9.470;2023-03-16T18:23:26;9.20;47.30
2441;DHT22;1231;53.988;9.470;2023-03-16T18:26:18;9.20;47.80
2441;DHT22;1231;53.988;9.470;2023-03-16T18:29:09;9.20;47.10
2441;DHT22;1231;53.988;9.470;2023-03-16T18:32:00;9.20;47.60
2441;DHT22;1231;53.988;9.470;2023-03-16T18:34:52;9.20;47.60
2441;DHT22;1231;53.988;9.470;2023-03-16T18:37:43;9.20;48.30
2441;DHT22;1231;53.988;9.470;2023-03-16T18:40:34;9.10;47.60
2441;DHT22;1231;53.988;9.470;2023-03-16T18:43:27;9.10;47.60
2441;DHT22;1231;53.988;9.470;2023-03-16T18:49:30;9.10;47.70
2441;DHT22;1231;53.988;9.470;2023-03-16T18:52:24;9.10;48.20
2441;DHT22;1231;53.988;9.470;2023-03-16T18:55:18;9.10;47.90
2441;DHT22;1231;53.988;9.470;2023-03-16T18:58:18;9.10;48.30
2441;DHT22;1231;53.988;9.470;2023-03-16T19:01:29;9.10;49.10
2441;DHT22;1231;53.988;9.470;2023-03-16T19:04:23;9.00;49.20
2441;DHT22;1231;53.988;9.470;2023-03-16T19:07:25;9.00;47.80
2441;DHT22;1231;53.988;9.470;2023-03-16T19:10:32;9.00;48.90
2441;DHT22;1231;53.988;9.470;2023-03-16T19:13:25;9.00;49.40
2441;DHT22;1231;53.988;9.470;2023-03-16T19:16:17;9.00;49.60
2441;DHT22;1231;53.988;9.470;2023-03-16T19:19:08;8.90;49.30
2441;DHT22;1231;53.988;9.470;2023-03-16T19:22:20;8.90;49.50
2441;DHT22;1231;53.988;9.470;2023-03-16T19:25:21;8.90;49.60
2441;DHT22;1231;53.988;9.470;2023-03-16T19:28:24;8.90;50.20
2441;DHT22;1231;53.988;9.470;2023-03-16T19:31:20;8.90;50.40
2441;DHT22;1231;53.988;9.470;2023-03-16T19:34:18;8.80;50.80
2441;DHT22;1231;53.988;9.470;2023-03-16T19:37:14;8.80;51.40
2441;DHT22;1231;53.988;9.470;2023-03-16T19:40:05;8.80;52.00
2441;DHT22;1231;53.988;9.470;2023-03-16T19:42:57;8.70;52.60
2441;DHT22;1231;53.988;9.470;2023-03-16T19:45:48;8.70;52.80
2441;DHT22;1231;53.988;9.470;2023-03-16T19:48:39;8.70;52.60
2441;DHT22;1231;53.988;9.470;2023-03-16T19:51:31;8.70;53.30
2441;DHT22;1231;53.988;9.470;2023-03-16T19:54:25;8.60;53.30
2441;DHT22;1231;53.988;9.470;2023-03-16T19:57:18;8.60;53.00
2441;DHT22;1231;53.988;9.470;2023-03-16T20:00:16;8.60;53.60
2441;DHT22;1231;53.988;9.470;2023-03-16T20:03:09;8.60;54.00
2441;DHT22;1231;53.988;9.470;2023-03-16T20:06:02;8.60;54.20
2441;DHT22;1231;53.988;9.470;2023-03-16T20:08:53;8.60;54.50
2441;DHT22;1231;53.988;9.470;2023-03-16T20:11:45;8.60;54.70
2441;DHT22;1231;53.988;9.470;2023-03-16T20:14:37;8.50;54.40
2441;DHT22;1231;53.988;9.470;2023-03-16T20:17:29;8.50;54.70
2441;DHT22;1231;53.988;9.470;2023-03-16T20:20:26;8.50;55.30
2441;DHT22;1231;53.988;9.470;2023-03-16T20:26:20;8.40;55.30
2441;DHT22;1231;53.988;9.470;2023-03-16T20:29:31;8.40;55.30
2441;DHT22;1231;53.988;9.470;2023-03-16T20:32:32;8.40;55.70
2441;DHT22;1231;53.988;9.470;2023-03-16T20:35:26;8.40;55.80
2441;DHT22;1231;53.988;9.470;2023-03-16T20:38:18;8.30;56.50